sensor_id;sensor_type;location;lat;lon;timestamp;P1;durP1;ratioP1;P2;durP2;ratioP2
34146;SDS011;20423;49.448;9.056;2022-12-15T00:02:18;112.57;;;37.78;;
34146;SDS011;20423;49.448;9.056;2022-12-15T00:05:02;115.53;;;40.88;;
34146;SDS011;20423;49.448;9.056;2022-12-15T00:07:47;133.18;;;46.47;;
34146;SDS011;20423;49.448;9.056;2022-12-15T00:10:31;165.00;;;51.97;;
34146;SDS011;20423;49.448;9.056;2022-12-15T00:13:15;142.35;;;45.55;;
34146;SDS011;20423;49.448;9.056;2022-12-15T00:15:59;136.35;;;46.28;;
34146;SDS011;20423;49.448;9.056;2022-12-15T00:22:32;103.85;;;37.70;;
34146;SDS011;20423;49.448;9.056;2022-12-15T00:25:16;105.30;;;38.03;;
34146;SDS011;20423;49.448;9.056;2022-12-15T00:28:00;110.25;;;37.88;;
34146;SDS011;20423;49.448;9.056;2022-12-15T00:30:44;90.43;;;35.88;;
34146;SDS011;20423;49.448;9.056;2022-12-15T00:33:28;100.07;;;35.95;;
34146;SDS011;20423;49.448;9.056;2022-12-15T00:36:12;95.00;;;35.92;;
34146;SDS011;20423;49.448;9.056;2022-12-15T00:38:56;86.15;;;33.88;;
34146;SDS011;20423;49.448;9.056;2022-12-15T00:41:22;91.88;;;34.63;;
34146;SDS011;20423;49.448;9.056;2022-12-15T00:43:48;91.18;;;35.00;;
34146;SDS011;20423;49.448;9.056;2022-12-15T00:46:13;85.38;;;34.53;;
34146;SDS011;20423;49.448;9.056;2022-12-15T00:48:58;93.30;;;36.33;;
34146;SDS011;20423;49.448;9.056;2022-12-15T00:51:39;96.40;;;35.13;;
34146;SDS011;20423;49.448;9.056;2022-12-15T00:54:23;93.57;;;35.05;;
34146;SDS011;20423;49.448;9.056;2022-12-15T00:57:07;91.82;;;34.25;;
34146;SDS011;20423;49.448;9.056;2022-12-15T00:59:51;83.65;;;33.20;;
34146;SDS011;20423;49.448;9.056;2022-12-15T01:02:35;84.30;;;33.22;;
34146;SDS011;20423;49.448;9.056;2022-12-15T01:05:19;86.15;;;33.35;;
34146;SDS011;20423;49.448;9.056;2022-12-15T01:08:03;88.20;;;33.42;;
34146;SDS011;20423;49.448;9.056;2022-12-15T01:10:47;86.30;;;32.80;;
34146;SDS011;20423;49.448;9.056;2022-12-15T01:13:31;103.18;;;39.00;;
34146;SDS011;20423;49.448;9.056;2022-12-15T01:16:16;105.97;;;39.83;;
34146;SDS011;20423;49.448;9.056;2022-12-15T01:19:00;143.35;;;48.00;;
34146;SDS011;20423;49.448;9.056;2022-12-15T01:21:44;120.85;;;41.45;;
34146;SDS011;20423;49.448;9.056;2022-12-15T01:24:09;122.57;;;42.88;;
34146;SDS011;20423;49.448;9.056;2022-12-15T01:26:35;115.50;;;41.58;;
34146;SDS011;20423;49.448;9.056;2022-12-15T01:29:04;117.38;;;40.22;;
34146;SDS011;20423;49.448;9.056;2022-12-15T01:31:29;99.05;;;36.70;;
34146;SDS011;20423;49.448;9.056;2022-12-15T01:33:55;89.88;;;35.10;;
34146;SDS011;20423;49.448;9.056;2022-12-15T01:36:21;93.03;;;34.72;;
34146;SDS011;20423;49.448;9.056;2022-12-15T01:38:46;86.05;;;33.17;;
34146;SDS011;20423;49.448;9.056;2022-12-15T01:41:12;84.70;;;31.98;;
34146;SDS011;20423;49.448;9.056;2022-12-15T01:43:39;83.97;;;32.83;;
34146;SDS011;20423;49.448;9.056;2022-12-15T01:46:06;83.80;;;32.33;;
34146;SDS011;20423;49.448;9.056;2022-12-15T01:51:34;76.65;;;29.33;;
34146;SDS011;20423;49.448;9.056;2022-12-15T01:56:31;72.88;;;30.75;;
34146;SDS011;20423;49.448;9.056;2022-12-15T01:58:59;70.15;;;29.15;;
34146;SDS011;20423;49.448;9.056;2022-12-15T02:01:27;76.28;;;29.35;;
34146;SDS011;20423;49.448;9.056;2022-12-15T02:03:53;78.80;;;31.85;;
34146;SDS011;20423;49.448;9.056;2022-12-15T02:06:19;82.43;;;28.90;;
34146;SDS011;20423;49.448;9.056;2022-12-15T02:08:46;73.15;;;30.75;;
34146;SDS011;20423;49.448;9.056;2022-12-15T02:11:22;78.00;;;30.45;;
34146;SDS011;20423;49.448;9.056;2022-12-15T02:14:00;73.60;;;30.15;;
34146;SDS011;20423;49.448;9.056;2022-12-15T02:19:43;74.20;;;29.80;;
34146;SDS011;20423;49.448;9.056;2022-12-15T02:24:56;79.25;;;31.02;;
34146;SDS011;20423;49.448;9.056;2022-12-15T02:38:08;69.30;;;28.15;;
34146;SDS011;20423;49.448;9.056;2022-12-15T02:40:34;71.40;;;29.30;;
34146;SDS011;20423;49.448;9.056;2022-12-15T02:43:02;67.28;;;28.52;;
34146;SDS011;20423;49.448;9.056;2022-12-15T02:45:49;73.88;;;30.33;;
34146;SDS011;20423;49.448;9.056;2022-12-15T02:48:45;64.05;;;29.20;;
34146;SDS011;20423;49.448;9.056;2022-12-15T02:57:06;61.30;;;25.85;;
34146;SDS011;20423;49.448;9.056;2022-12-15T02:59:43;57.08;;;23.65;;
34146;SDS011;20423;49.448;9.056;2022-12-15T03:02:19;58.88;;;24.45;;
34146;SDS011;20423;49.448;9.056;2022-12-15T03:04:48;63.15;;;25.40;;
34146;SDS011;20423;49.448;9.056;2022-12-15T03:10:03;68.43;;;27.67;;
34146;SDS011;20423;49.448;9.056;2022-12-15T03:12:30;70.68;;;28.67;;
34146;SDS011;20423;49.448;9.056;2022-12-15T03:14:55;66.13;;;27.83;;
34146;SDS011;20423;49.448;9.056;2022-12-15T03:17:22;62.08;;;26.60;;
34146;SDS011;20423;49.448;9.056;2022-12-15T03:19:48;62.42;;;24.10;;
34146;SDS011;20423;49.448;9.056;2022-12-15T03:22:18;65.82;;;26.45;;
34146;SDS011;20423;49.448;9.056;2022-12-15T03:24:44;57.47;;;25.65;;
34146;SDS011;20423;49.448;9.056;2022-12-15T03:27:10;58.40;;;25.15;;
34146;SDS011;20423;49.448;9.056;2022-12-15T03:29:35;57.95;;;23.48;;
34146;SDS011;20423;49.448;9.056;2022-12-15T03:32:01;56.20;;;23.70;;
34146;SDS011;20423;49.448;9.056;2022-12-15T03:34:27;56.30;;;24.42;;
34146;SDS011;20423;49.448;9.056;2022-12-15T03:36:52;55.67;;;22.45;;
34146;SDS011;20423;49.448;9.056;2022-12-15T03:39:18;57.53;;;25.40;;
34146;SDS011;20423;49.448;9.056;2022-12-15T03:41:44;63.85;;;24.00;;
34146;SDS011;20423;49.448;9.056;2022-12-15T03:44:09;59.00;;;24.70;;
34146;SDS011;20423;49.448;9.056;2022-12-15T03:46:35;59.72;;;26.25;;
34146;SDS011;20423;49.448;9.056;2022-12-15T03:49:01;56.55;;;24.50;;
34146;SDS011;20423;49.448;9.056;2022-12-15T03:51:27;64.95;;;24.77;;
34146;SDS011;20423;49.448;9.056;2022-12-15T03:53:52;55.67;;;25.77;;
34146;SDS011;20423;49.448;9.056;2022-12-15T03:56:18;67.70;;;27.38;;
34146;SDS011;20423;49.448;9.056;2022-12-15T03:58:44;73.13;;;28.70;;
34146;SDS011;20423;49.448;9.056;2022-12-15T04:03:44;67.63;;;28.80;;
34146;SDS011;20423;49.448;9.056;2022-12-15T04:06:10;58.15;;;24.75;;
34146;SDS011;20423;49.448;9.056;2022-12-15T04:08:36;65.10;;;26.17;;
34146;SDS011;20423;49.448;9.056;2022-12-15T04:11:02;152.95;;;45.72;;
34146;SDS011;20423;49.448;9.056;2022-12-15T04:13:27;91.03;;;36.80;;
34146;SDS011;20423;49.448;9.056;2022-12-15T04:15:53;60.85;;;27.88;;
34146;SDS011;20423;49.448;9.056;2022-12-15T04:18:20;52.85;;;24.45;;
34146;SDS011;20423;49.448;9.056;2022-12-15T04:20:45;54.25;;;24.08;;
34146;SDS011;20423;49.448;9.056;2022-12-15T04:23:12;55.60;;;22.80;;
34146;SDS011;20423;49.448;9.056;2022-12-15T04:25:50;51.80;;;24.70;;
34146;SDS011;20423;49.448;9.056;2022-12-15T04:28:46;63.60;;;25.95;;
34146;SDS011;20423;49.448;9.056;2022-12-15T04:31:30;58.20;;;24.73;;
34146;SDS011;20423;49.448;9.056;2022-12-15T04:34:18;57.13;;;25.30;;
34146;SDS011;20423;49.448;9.056;2022-12-15T04:37:09;71.00;;;28.17;;
34146;SDS011;20423;49.448;9.056;2022-12-15T04:43:14;50.58;;;22.20;;
34146;SDS011;20423;49.448;9.056;2022-12-15T04:45:58;54.05;;;23.05;;
34146;SDS011;20423;49.448;9.056;2022-12-15T04:48:42;44.38;;;20.45;;
34146;SDS011;20423;49.448;9.056;2022-12-15T04:51:26;50.35;;;20.50;;
34146;SDS011;20423;49.448;9.056;2022-12-15T04:54:11;48.42;;;21.05;;
34146;SDS011;20423;49.448;9.056;2022-12-15T04:56:55;55.08;;;22.90;;
34146;SDS011;20423;49.448;9.056;2022-12-15T04:59:39;50.55;;;22.25;;
34146;SDS011;20423;49.448;9.056;2022-12-15T05:02:23;50.15;;;21.52;;
34146;SDS011;20423;49.448;9.056;2022-12-15T05:05:07;48.20;;;20.38;;
34146;SDS011;20423;49.448;9.056;2022-12-15T05:11:12;48.50;;;20.83;;
34146;SDS011;20423;49.448;9.056;2022-12-15T05:13:56;48.05;;;21.15;;
34146;SDS011;20423;49.448;9.056;2022-12-15T05:16:40;52.20;;;23.75;;
34146;SDS011;20423;49.448;9.056;2022-12-15T05:19:24;55.17;;;23.98;;
34146;SDS011;20423;49.448;9.056;2022-12-15T05:22:08;50.55;;;22.48;;
34146;SDS011;20423;49.448;9.056;2022-12-15T05:24:52;45.35;;;19.60;;
34146;SDS011;20423;49.448;9.056;2022-12-15T05:27:36;47.97;;;20.42;;
34146;SDS011;20423;49.448;9.056;2022-12-15T05:30:21;49.08;;;20.08;;
34146;SDS011;20423;49.448;9.056;2022-12-15T05:33:05;48.78;;;21.02;;
34146;SDS011;20423;49.448;9.056;2022-12-15T05:35:30;52.85;;;22.50;;
34146;SDS011;20423;49.448;9.056;2022-12-15T05:37:56;42.38;;;19.20;;
34146;SDS011;20423;49.448;9.056;2022-12-15T05:40:22;47.03;;;20.48;;
34146;SDS011;20423;49.448;9.056;2022-12-15T05:42:47;44.35;;;18.73;;
34146;SDS011;20423;49.448;9.056;2022-12-15T05:45:13;47.40;;;19.10;;
34146;SDS011;20423;49.448;9.056;2022-12-15T05:47:39;42.53;;;18.88;;
34146;SDS011;20423;49.448;9.056;2022-12-15T05:50:05;51.53;;;19.45;;
34146;SDS011;20423;49.448;9.056;2022-12-15T05:52:31;42.17;;;18.05;;
34146;SDS011;20423;49.448;9.056;2022-12-15T05:54:56;44.50;;;19.60;;
34146;SDS011;20423;49.448;9.056;2022-12-15T05:57:22;44.10;;;18.90;;
34146;SDS011;20423;49.448;9.056;2022-12-15T05:59:48;43.80;;;18.75;;
34146;SDS011;20423;49.448;9.056;2022-12-15T06:02:13;39.95;;;19.45;;
34146;SDS011;20423;49.448;9.056;2022-12-15T06:04:39;45.72;;;19.98;;
34146;SDS011;20423;49.448;9.056;2022-12-15T06:07:05;42.95;;;19.90;;
34146;SDS011;20423;49.448;9.056;2022-12-15T06:09:31;44.83;;;19.13;;
34146;SDS011;20423;49.448;9.056;2022-12-15T06:11:56;47.55;;;20.38;;
34146;SDS011;20423;49.448;9.056;2022-12-15T06:14:22;46.40;;;18.33;;
34146;SDS011;20423;49.448;9.056;2022-12-15T06:16:47;42.08;;;19.10;;
34146;SDS011;20423;49.448;9.056;2022-12-15T06:19:13;41.63;;;18.92;;
34146;SDS011;20423;49.448;9.056;2022-12-15T06:21:39;51.30;;;21.13;;
34146;SDS011;20423;49.448;9.056;2022-12-15T06:24:04;59.63;;;22.58;;
34146;SDS011;20423;49.448;9.056;2022-12-15T06:26:35;49.97;;;21.08;;
34146;SDS011;20423;49.448;9.056;2022-12-15T06:29:02;57.58;;;22.55;;
34146;SDS011;20423;49.448;9.056;2022-12-15T06:31:30;51.38;;;20.65;;
34146;SDS011;20423;49.448;9.056;2022-12-15T06:33:56;46.53;;;18.42;;
34146;SDS011;20423;49.448;9.056;2022-12-15T06:36:31;42.88;;;18.50;;
34146;SDS011;20423;49.448;9.056;2022-12-15T06:38:58;48.40;;;21.15;;
34146;SDS011;20423;49.448;9.056;2022-12-15T06:41:25;51.50;;;21.38;;
34146;SDS011;20423;49.448;9.056;2022-12-15T06:43:52;62.60;;;22.80;;
34146;SDS011;20423;49.448;9.056;2022-12-15T06:46:20;54.95;;;20.75;;
34146;SDS011;20423;49.448;9.056;2022-12-15T06:48:46;58.88;;;22.52;;
34146;SDS011;20423;49.448;9.056;2022-12-15T06:51:12;64.55;;;26.23;;
34146;SDS011;20423;49.448;9.056;2022-12-15T06:53:39;58.28;;;22.35;;
34146;SDS011;20423;49.448;9.056;2022-12-15T06:56:06;66.00;;;24.40;;
34146;SDS011;20423;49.448;9.056;2022-12-15T06:58:38;58.55;;;22.00;;
34146;SDS011;20423;49.448;9.056;2022-12-15T07:01:13;56.80;;;22.52;;
34146;SDS011;20423;49.448;9.056;2022-12-15T07:03:40;69.03;;;27.13;;
34146;SDS011;20423;49.448;9.056;2022-12-15T07:06:08;66.80;;;26.52;;
34146;SDS011;20423;49.448;9.056;2022-12-15T07:08:35;63.33;;;23.38;;
34146;SDS011;20423;49.448;9.056;2022-12-15T07:11:02;58.67;;;24.70;;
34146;SDS011;20423;49.448;9.056;2022-12-15T07:13:29;75.30;;;26.38;;
34146;SDS011;20423;49.448;9.056;2022-12-15T07:15:58;74.03;;;27.30;;
34146;SDS011;20423;49.448;9.056;2022-12-15T07:18:28;65.45;;;25.58;;
34146;SDS011;20423;49.448;9.056;2022-12-15T07:21:01;74.20;;;29.67;;
34146;SDS011;20423;49.448;9.056;2022-12-15T07:23:29;71.72;;;28.58;;
34146;SDS011;20423;49.448;9.056;2022-12-15T07:25:55;93.63;;;34.03;;
34146;SDS011;20423;49.448;9.056;2022-12-15T07:28:20;91.28;;;35.50;;
34146;SDS011;20423;49.448;9.056;2022-12-15T07:30:46;74.50;;;30.00;;
34146;SDS011;20423;49.448;9.056;2022-12-15T07:33:12;66.90;;;27.40;;
34146;SDS011;20423;49.448;9.056;2022-12-15T07:35:39;65.13;;;26.75;;
34146;SDS011;20423;49.448;9.056;2022-12-15T07:38:24;69.25;;;25.77;;
34146;SDS011;20423;49.448;9.056;2022-12-15T07:40:50;70.30;;;26.27;;
34146;SDS011;20423;49.448;9.056;2022-12-15T07:43:16;79.82;;;28.33;;
34146;SDS011;20423;49.448;9.056;2022-12-15T07:48:38;77.78;;;27.27;;
34146;SDS011;20423;49.448;9.056;2022-12-15T07:51:04;74.00;;;25.73;;
34146;SDS011;20423;49.448;9.056;2022-12-15T07:53:31;70.40;;;26.52;;
34146;SDS011;20423;49.448;9.056;2022-12-15T07:55:58;69.20;;;27.02;;
34146;SDS011;20423;49.448;9.056;2022-12-15T07:58:25;64.28;;;26.73;;
34146;SDS011;20423;49.448;9.056;2022-12-15T08:00:52;63.80;;;23.83;;
34146;SDS011;20423;49.448;9.056;2022-12-15T08:03:18;68.53;;;25.85;;
34146;SDS011;20423;49.448;9.056;2022-12-15T08:05:44;60.50;;;23.42;;
34146;SDS011;20423;49.448;9.056;2022-12-15T08:08:10;64.30;;;23.73;;
34146;SDS011;20423;49.448;9.056;2022-12-15T08:10:38;63.10;;;24.65;;
34146;SDS011;20423;49.448;9.056;2022-12-15T08:13:04;71.07;;;25.40;;
34146;SDS011;20423;49.448;9.056;2022-12-15T08:15:30;60.30;;;24.13;;
34146;SDS011;20423;49.448;9.056;2022-12-15T08:17:59;66.78;;;25.02;;
34146;SDS011;20423;49.448;9.056;2022-12-15T08:20:25;59.83;;;23.20;;
34146;SDS011;20423;49.448;9.056;2022-12-15T08:22:51;56.88;;;22.20;;
34146;SDS011;20423;49.448;9.056;2022-12-15T08:25:17;61.25;;;23.00;;
34146;SDS011;20423;49.448;9.056;2022-12-15T08:27:43;56.78;;;20.27;;
34146;SDS011;20423;49.448;9.056;2022-12-15T08:30:08;59.75;;;24.33;;
34146;SDS011;20423;49.448;9.056;2022-12-15T08:32:34;53.42;;;21.35;;
34146;SDS011;20423;49.448;9.056;2022-12-15T08:35:00;53.90;;;22.33;;
34146;SDS011;20423;49.448;9.056;2022-12-15T08:37:26;54.78;;;20.65;;
34146;SDS011;20423;49.448;9.056;2022-12-15T08:39:52;61.85;;;24.90;;
34146;SDS011;20423;49.448;9.056;2022-12-15T08:42:17;66.05;;;25.40;;
34146;SDS011;20423;49.448;9.056;2022-12-15T08:44:52;81.55;;;28.98;;
34146;SDS011;20423;49.448;9.056;2022-12-15T08:47:18;62.05;;;24.48;;
34146;SDS011;20423;49.448;9.056;2022-12-15T08:49:43;53.63;;;22.20;;
34146;SDS011;20423;49.448;9.056;2022-12-15T08:52:09;51.63;;;20.95;;
34146;SDS011;20423;49.448;9.056;2022-12-15T08:54:36;48.08;;;20.45;;
34146;SDS011;20423;49.448;9.056;2022-12-15T08:57:02;46.25;;;19.65;;
34146;SDS011;20423;49.448;9.056;2022-12-15T08:59:27;48.67;;;20.73;;
34146;SDS011;20423;49.448;9.056;2022-12-15T09:01:53;49.58;;;20.10;;
34146;SDS011;20423;49.448;9.056;2022-12-15T09:04:19;47.38;;;20.73;;
34146;SDS011;20423;49.448;9.056;2022-12-15T09:06:45;50.40;;;20.58;;
34146;SDS011;20423;49.448;9.056;2022-12-15T09:09:11;48.53;;;20.35;;
34146;SDS011;20423;49.448;9.056;2022-12-15T09:11:38;50.28;;;18.27;;
34146;SDS011;20423;49.448;9.056;2022-12-15T09:14:03;42.45;;;18.83;;
34146;SDS011;20423;49.448;9.056;2022-12-15T09:16:30;42.85;;;18.33;;
34146;SDS011;20423;49.448;9.056;2022-12-15T09:18:57;41.70;;;18.83;;
34146;SDS011;20423;49.448;9.056;2022-12-15T09:21:24;40.65;;;19.65;;
34146;SDS011;20423;49.448;9.056;2022-12-15T09:23:53;52.88;;;22.58;;
34146;SDS011;20423;49.448;9.056;2022-12-15T09:26:28;51.35;;;22.17;;
34146;SDS011;20423;49.448;9.056;2022-12-15T09:28:55;51.67;;;21.60;;
34146;SDS011;20423;49.448;9.056;2022-12-15T09:31:26;53.92;;;23.88;;
34146;SDS011;20423;49.448;9.056;2022-12-15T09:33:54;47.10;;;20.83;;
34146;SDS011;20423;49.448;9.056;2022-12-15T09:36:23;40.50;;;19.25;;
34146;SDS011;20423;49.448;9.056;2022-12-15T09:38:49;43.95;;;21.38;;
34146;SDS011;20423;49.448;9.056;2022-12-15T09:41:25;37.70;;;18.42;;
34146;SDS011;20423;49.448;9.056;2022-12-15T09:43:55;36.25;;;18.08;;
34146;SDS011;20423;49.448;9.056;2022-12-15T09:49:13;32.97;;;16.15;;
34146;SDS011;20423;49.448;9.056;2022-12-15T09:51:57;26.48;;;14.93;;
34146;SDS011;20423;49.448;9.056;2022-12-15T09:54:30;29.00;;;14.98;;
34146;SDS011;20423;49.448;9.056;2022-12-15T09:56:56;27.83;;;15.20;;
34146;SDS011;20423;49.448;9.056;2022-12-15T09:59:38;28.98;;;14.80;;
34146;SDS011;20423;49.448;9.056;2022-12-15T10:07:32;23.83;;;12.68;;
34146;SDS011;20423;49.448;9.056;2022-12-15T10:12:44;22.65;;;12.55;;
34146;SDS011;20423;49.448;9.056;2022-12-15T10:15:24;18.70;;;11.15;;
34146;SDS011;20423;49.448;9.056;2022-12-15T10:20:43;22.83;;;11.70;;
34146;SDS011;20423;49.448;9.056;2022-12-15T10:23:09;21.52;;;11.55;;
34146;SDS011;20423;49.448;9.056;2022-12-15T10:25:38;18.98;;;10.50;;
34146;SDS011;20423;49.448;9.056;2022-12-15T10:30:42;21.73;;;11.95;;
34146;SDS011;20423;49.448;9.056;2022-12-15T10:33:16;23.25;;;10.82;;
34146;SDS011;20423;49.448;9.056;2022-12-15T10:35:44;18.85;;;10.57;;
34146;SDS011;20423;49.448;9.056;2022-12-15T10:40:57;17.13;;;9.23;;
34146;SDS011;20423;49.448;9.056;2022-12-15T10:48:38;17.95;;;8.63;;
34146;SDS011;20423;49.448;9.056;2022-12-15T10:53:42;19.00;;;9.85;;
34146;SDS011;20423;49.448;9.056;2022-12-15T10:56:15;20.23;;;10.15;;
34146;SDS011;20423;49.448;9.056;2022-12-15T10:58:51;23.77;;;10.68;;
34146;SDS011;20423;49.448;9.056;2022-12-15T11:01:19;26.67;;;11.85;;
34146;SDS011;20423;49.448;9.056;2022-12-15T11:03:49;26.20;;;13.20;;
34146;SDS011;20423;49.448;9.056;2022-12-15T11:06:23;28.15;;;12.85;;
34146;SDS011;20423;49.448;9.056;2022-12-15T11:08:55;30.15;;;13.25;;
34146;SDS011;20423;49.448;9.056;2022-12-15T11:11:32;25.63;;;11.68;;
34146;SDS011;20423;49.448;9.056;2022-12-15T11:14:19;29.75;;;12.57;;
34146;SDS011;20423;49.448;9.056;2022-12-15T11:16:51;29.67;;;12.68;;
34146;SDS011;20423;49.448;9.056;2022-12-15T11:19:30;32.35;;;14.60;;
34146;SDS011;20423;49.448;9.056;2022-12-15T11:22:07;23.88;;;9.73;;
34146;SDS011;20423;49.448;9.056;2022-12-15T11:27:44;23.35;;;10.43;;
34146;SDS011;20423;49.448;9.056;2022-12-15T11:30:14;20.55;;;10.25;;
34146;SDS011;20423;49.448;9.056;2022-12-15T11:32:45;17.30;;;8.55;;
34146;SDS011;20423;49.448;9.056;2022-12-15T11:35:31;21.50;;;9.23;;
34146;SDS011;20423;49.448;9.056;2022-12-15T11:43:52;16.88;;;9.13;;
34146;SDS011;20423;49.448;9.056;2022-12-15T11:49:30;21.00;;;8.93;;
34146;SDS011;20423;49.448;9.056;2022-12-15T11:55:30;17.13;;;8.50;;
34146;SDS011;20423;49.448;9.056;2022-12-15T12:06:54;15.85;;;7.55;;
34146;SDS011;20423;49.448;9.056;2022-12-15T12:09:45;16.65;;;8.18;;
34146;SDS011;20423;49.448;9.056;2022-12-15T12:12:25;15.30;;;7.97;;
34146;SDS011;20423;49.448;9.056;2022-12-15T12:18:06;16.38;;;8.48;;
34146;SDS011;20423;49.448;9.056;2022-12-15T12:20:57;20.65;;;9.15;;
34146;SDS011;20423;49.448;9.056;2022-12-15T12:26:14;15.82;;;7.25;;
34146;SDS011;20423;49.448;9.056;2022-12-15T12:34:27;16.52;;;6.85;;
34146;SDS011;20423;49.448;9.056;2022-12-15T12:37:00;12.60;;;6.78;;
34146;SDS011;20423;49.448;9.056;2022-12-15T12:39:37;13.50;;;6.97;;
34146;SDS011;20423;49.448;9.056;2022-12-15T12:42:09;13.77;;;6.45;;
34146;SDS011;20423;49.448;9.056;2022-12-15T12:44:55;10.68;;;5.88;;
34146;SDS011;20423;49.448;9.056;2022-12-15T12:49:56;13.38;;;6.93;;
34146;SDS011;20423;49.448;9.056;2022-12-15T12:52:26;15.60;;;7.28;;
34146;SDS011;20423;49.448;9.056;2022-12-15T12:54:55;14.75;;;6.75;;
34146;SDS011;20423;49.448;9.056;2022-12-15T12:57:43;14.88;;;7.80;;
34146;SDS011;20423;49.448;9.056;2022-12-15T13:00:14;16.55;;;7.97;;
34146;SDS011;20423;49.448;9.056;2022-12-15T13:05:27;18.63;;;8.68;;
34146;SDS011;20423;49.448;9.056;2022-12-15T13:10:30;19.92;;;8.80;;
34146;SDS011;20423;49.448;9.056;2022-12-15T13:12:57;19.40;;;9.50;;
34146;SDS011;20423;49.448;9.056;2022-12-15T13:16:03;22.63;;;10.63;;
34146;SDS011;20423;49.448;9.056;2022-12-15T13:18:54;25.23;;;11.00;;
34146;SDS011;20423;49.448;9.056;2022-12-15T13:21:45;23.08;;;10.27;;
34146;SDS011;20423;49.448;9.056;2022-12-15T13:27:10;21.55;;;10.23;;
34146;SDS011;20423;49.448;9.056;2022-12-15T13:32:36;23.88;;;11.73;;
34146;SDS011;20423;49.448;9.056;2022-12-15T13:37:54;29.90;;;12.38;;
34146;SDS011;20423;49.448;9.056;2022-12-15T13:48:41;24.85;;;10.95;;
34146;SDS011;20423;49.448;9.056;2022-12-15T13:53:39;23.23;;;11.63;;
34146;SDS011;20423;49.448;9.056;2022-12-15T13:58:56;28.23;;;12.20;;
34146;SDS011;20423;49.448;9.056;2022-12-15T14:01:27;26.40;;;11.25;;
34146;SDS011;20423;49.448;9.056;2022-12-15T14:03:58;28.70;;;12.00;;
34146;SDS011;20423;49.448;9.056;2022-12-15T14:06:28;24.38;;;9.73;;
34146;SDS011;20423;49.448;9.056;2022-12-15T14:08:59;22.17;;;10.18;;
34146;SDS011;20423;49.448;9.056;2022-12-15T14:11:25;20.98;;;9.65;;
34146;SDS011;20423;49.448;9.056;2022-12-15T14:13:59;28.57;;;11.50;;
34146;SDS011;20423;49.448;9.056;2022-12-15T14:16:25;27.02;;;11.30;;
34146;SDS011;20423;49.448;9.056;2022-12-15T14:19:03;24.42;;;10.50;;
34146;SDS011;20423;49.448;9.056;2022-12-15T14:21:29;31.35;;;13.23;;
34146;SDS011;20423;49.448;9.056;2022-12-15T14:23:54;29.00;;;12.45;;
34146;SDS011;20423;49.448;9.056;2022-12-15T14:26:24;27.42;;;10.80;;
34146;SDS011;20423;49.448;9.056;2022-12-15T14:29:02;21.80;;;10.50;;
34146;SDS011;20423;49.448;9.056;2022-12-15T14:31:29;25.95;;;11.40;;
34146;SDS011;20423;49.448;9.056;2022-12-15T14:33:59;23.33;;;11.15;;
34146;SDS011;20423;49.448;9.056;2022-12-15T14:36:29;26.63;;;12.25;;
34146;SDS011;20423;49.448;9.056;2022-12-15T14:39:06;27.58;;;12.77;;
34146;SDS011;20423;49.448;9.056;2022-12-15T14:41:43;26.30;;;12.48;;
34146;SDS011;20423;49.448;9.056;2022-12-15T14:44:25;34.55;;;14.40;;
34146;SDS011;20423;49.448;9.056;2022-12-15T14:46:57;31.38;;;13.35;;
34146;SDS011;20423;49.448;9.056;2022-12-15T14:49:27;30.70;;;12.93;;
34146;SDS011;20423;49.448;9.056;2022-12-15T14:52:00;35.13;;;14.25;;
34146;SDS011;20423;49.448;9.056;2022-12-15T14:54:33;31.90;;;13.88;;
34146;SDS011;20423;49.448;9.056;2022-12-15T14:57:14;30.10;;;14.10;;
34146;SDS011;20423;49.448;9.056;2022-12-15T14:59:51;32.05;;;14.10;;
34146;SDS011;20423;49.448;9.056;2022-12-15T15:02:24;36.85;;;15.32;;
34146;SDS011;20423;49.448;9.056;2022-12-15T15:04:59;28.73;;;14.27;;
34146;SDS011;20423;49.448;9.056;2022-12-15T15:07:32;31.10;;;14.98;;
34146;SDS011;20423;49.448;9.056;2022-12-15T15:10:02;34.90;;;15.27;;
34146;SDS011;20423;49.448;9.056;2022-12-15T15:12:44;38.42;;;16.42;;
34146;SDS011;20423;49.448;9.056;2022-12-15T15:15:17;34.85;;;15.20;;
34146;SDS011;20423;49.448;9.056;2022-12-15T15:17:54;36.90;;;15.98;;
34146;SDS011;20423;49.448;9.056;2022-12-15T15:33:17;30.38;;;14.20;;
34146;SDS011;20423;49.448;9.056;2022-12-15T15:35:43;31.50;;;14.25;;
34146;SDS011;20423;49.448;9.056;2022-12-15T15:40:51;33.70;;;13.85;;
34146;SDS011;20423;49.448;9.056;2022-12-15T15:43:19;32.55;;;14.20;;
34146;SDS011;20423;49.448;9.056;2022-12-15T15:45:45;29.52;;;13.23;;
34146;SDS011;20423;49.448;9.056;2022-12-15T15:48:13;26.35;;;12.40;;
34146;SDS011;20423;49.448;9.056;2022-12-15T15:50:45;32.30;;;13.88;;
34146;SDS011;20423;49.448;9.056;2022-12-15T15:53:14;29.42;;;12.82;;
34146;SDS011;20423;49.448;9.056;2022-12-15T15:55:42;28.15;;;12.35;;
34146;SDS011;20423;49.448;9.056;2022-12-15T15:58:11;34.28;;;14.00;;
34146;SDS011;20423;49.448;9.056;2022-12-15T16:00:38;31.98;;;14.77;;
34146;SDS011;20423;49.448;9.056;2022-12-15T16:03:04;33.92;;;13.93;;
34146;SDS011;20423;49.448;9.056;2022-12-15T16:05:29;30.83;;;12.93;;
34146;SDS011;20423;49.448;9.056;2022-12-15T16:07:55;28.55;;;13.13;;
34146;SDS011;20423;49.448;9.056;2022-12-15T16:10:23;26.13;;;13.15;;
34146;SDS011;20423;49.448;9.056;2022-12-15T16:12:51;28.02;;;12.13;;
34146;SDS011;20423;49.448;9.056;2022-12-15T16:15:20;49.55;;;18.08;;
34146;SDS011;20423;49.448;9.056;2022-12-15T16:17:47;47.40;;;17.98;;
34146;SDS011;20423;49.448;9.056;2022-12-15T16:20:15;33.55;;;15.25;;
34146;SDS011;20423;49.448;9.056;2022-12-15T16:22:43;35.17;;;15.10;;
34146;SDS011;20423;49.448;9.056;2022-12-15T16:25:13;37.65;;;15.05;;
34146;SDS011;20423;49.448;9.056;2022-12-15T16:27:41;39.78;;;14.57;;
34146;SDS011;20423;49.448;9.056;2022-12-15T16:30:19;30.95;;;13.82;;
34146;SDS011;20423;49.448;9.056;2022-12-15T16:32:50;26.63;;;12.40;;
34146;SDS011;20423;49.448;9.056;2022-12-15T16:35:18;30.15;;;12.55;;
34146;SDS011;20423;49.448;9.056;2022-12-15T16:37:44;44.03;;;16.73;;
34146;SDS011;20423;49.448;9.056;2022-12-15T16:40:21;41.95;;;16.23;;
34146;SDS011;20423;49.448;9.056;2022-12-15T16:43:01;33.28;;;14.77;;
34146;SDS011;20423;49.448;9.056;2022-12-15T16:45:28;30.67;;;13.45;;
34146;SDS011;20423;49.448;9.056;2022-12-15T16:47:55;24.60;;;11.38;;
34146;SDS011;20423;49.448;9.056;2022-12-15T16:50:24;33.47;;;13.43;;
34146;SDS011;20423;49.448;9.056;2022-12-15T16:52:56;31.23;;;12.57;;
34146;SDS011;20423;49.448;9.056;2022-12-15T16:55:23;24.70;;;11.18;;
34146;SDS011;20423;49.448;9.056;2022-12-15T16:57:52;37.55;;;14.10;;
34146;SDS011;20423;49.448;9.056;2022-12-15T17:00:21;28.63;;;12.75;;
34146;SDS011;20423;49.448;9.056;2022-12-15T17:02:50;31.15;;;14.45;;
34146;SDS011;20423;49.448;9.056;2022-12-15T17:05:17;28.48;;;12.50;;
34146;SDS011;20423;49.448;9.056;2022-12-15T17:07:44;28.33;;;13.35;;
34146;SDS011;20423;49.448;9.056;2022-12-15T17:12:45;22.25;;;10.90;;
34146;SDS011;20423;49.448;9.056;2022-12-15T17:15:21;27.30;;;11.80;;
34146;SDS011;20423;49.448;9.056;2022-12-15T17:17:49;28.17;;;11.98;;
34146;SDS011;20423;49.448;9.056;2022-12-15T17:20:16;27.10;;;11.95;;
34146;SDS011;20423;49.448;9.056;2022-12-15T17:22:48;28.45;;;13.45;;
34146;SDS011;20423;49.448;9.056;2022-12-15T17:25:20;28.90;;;12.43;;